sensor_id;sensor_type;location;lat;lon;timestamp;P1;durP1;ratioP1;P2;durP2;ratioP2
56736;SDS011;42618;51.226;4.910;2023-10-13T00:01:24;10.63;;;3.42;;
56736;SDS011;42618;51.226;4.910;2023-10-13T00:03:51;7.68;;;2.58;;
56736;SDS011;42618;51.226;4.910;2023-10-13T00:06:19;9.68;;;3.25;;
56736;SDS011;42618;51.226;4.910;2023-10-13T00:08:46;11.10;;;4.00;;
56736;SDS011;42618;51.226;4.910;2023-10-13T00:11:13;6.57;;;3.55;;
56736;SDS011;42618;51.226;4.910;2023-10-13T00:13:40;6.32;;;2.95;;
56736;SDS011;42618;51.226;4.910;2023-10-13T00:16:17;14.45;;;3.38;;
56736;SDS011;42618;51.226;4.910;2023-10-13T00:18:48;7.95;;;3.20;;
56736;SDS011;42618;51.226;4.910;2023-10-13T00:21:21;7.07;;;3.40;;
56736;SDS011;42618;51.226;4.910;2023-10-13T00:24:08;8.18;;;3.17;;
56736;SDS011;42618;51.226;4.910;2023-10-13T00:26:38;8.85;;;3.20;;
56736;SDS011;42618;51.226;4.910;2023-10-13T00:29:09;8.07;;;3.05;;
56736;SDS011;42618;51.226;4.910;2023-10-13T00:31:43;11.05;;;3.47;;
56736;SDS011;42618;51.226;4.910;2023-10-13T00:34:11;9.68;;;3.72;;
56736;SDS011;42618;51.226;4.910;2023-10-13T00:36:51;9.65;;;3.35;;
56736;SDS011;42618;51.226;4.910;2023-10-13T00:39:44;10.05;;;3.90;;
56736;SDS011;42618;51.226;4.910;2023-10-13T00:42:14;9.85;;;4.00;;
56736;SDS011;42618;51.226;4.910;2023-10-13T00:44:45;12.50;;;4.25;;
56736;SDS011;42618;51.226;4.910;2023-10-13T00:47:16;10.45;;;4.55;;
56736;SDS011;42618;51.226;4.910;2023-10-13T00:50:05;12.18;;;4.82;;
56736;SDS011;42618;51.226;4.910;2023-10-13T00:52:32;14.18;;;4.97;;
56736;SDS011;42618;51.226;4.910;2023-10-13T00:55:02;12.50;;;4.70;;
56736;SDS011;42618;51.226;4.910;2023-10-13T00:57:31;15.65;;;4.88;;
56736;SDS011;42618;51.226;4.910;2023-10-13T00:59:59;10.90;;;4.93;;
56736;SDS011;42618;51.226;4.910;2023-10-13T01:02:39;9.43;;;5.00;;
56736;SDS011;42618;51.226;4.910;2023-10-13T01:05:06;10.77;;;5.47;;
56736;SDS011;42618;51.226;4.910;2023-10-13T01:07:38;15.23;;;5.10;;
56736;SDS011;42618;51.226;4.910;2023-10-13T01:10:09;11.15;;;5.10;;
56736;SDS011;42618;51.226;4.910;2023-10-13T01:12:40;10.65;;;5.45;;
56736;SDS011;42618;51.226;4.910;2023-10-13T01:15:12;13.57;;;5.63;;
56736;SDS011;42618;51.226;4.910;2023-10-13T01:17:43;13.75;;;5.18;;
56736;SDS011;42618;51.226;4.910;2023-10-13T01:20:16;14.43;;;5.55;;
56736;SDS011;42618;51.226;4.910;2023-10-13T01:22:51;12.90;;;5.65;;
56736;SDS011;42618;51.226;4.910;2023-10-13T01:25:25;14.65;;;5.72;;
56736;SDS011;42618;51.226;4.910;2023-10-13T01:27:55;10.38;;;5.90;;
56736;SDS011;42618;51.226;4.910;2023-10-13T01:30:23;14.82;;;6.40;;
56736;SDS011;42618;51.226;4.910;2023-10-13T01:32:51;14.93;;;5.18;;
56736;SDS011;42618;51.226;4.910;2023-10-13T01:35:20;13.27;;;6.53;;
56736;SDS011;42618;51.226;4.910;2023-10-13T01:37:52;15.75;;;5.55;;
56736;SDS011;42618;51.226;4.910;2023-10-13T01:40:19;19.15;;;6.78;;
56736;SDS011;42618;51.226;4.910;2023-10-13T01:45:21;19.08;;;7.82;;
56736;SDS011;42618;51.226;4.910;2023-10-13T01:47:55;14.90;;;7.63;;
56736;SDS011;42618;51.226;4.910;2023-10-13T01:50:22;16.42;;;7.78;;
56736;SDS011;42618;51.226;4.910;2023-10-13T01:52:56;17.83;;;8.40;;
56736;SDS011;42618;51.226;4.910;2023-10-13T01:55:52;17.73;;;8.95;;
56736;SDS011;42618;51.226;4.910;2023-10-13T01:58:23;19.08;;;8.85;;
56736;SDS011;42618;51.226;4.910;2023-10-13T02:00:52;23.83;;;10.10;;
56736;SDS011;42618;51.226;4.910;2023-10-13T02:03:19;23.20;;;10.38;;
56736;SDS011;42618;51.226;4.910;2023-10-13T02:05:49;27.83;;;12.05;;
56736;SDS011;42618;51.226;4.910;2023-10-13T02:08:21;32.22;;;13.55;;
56736;SDS011;42618;51.226;4.910;2023-10-13T02:10:51;26.63;;;12.00;;
56736;SDS011;42618;51.226;4.910;2023-10-13T02:13:24;36.00;;;15.05;;
56736;SDS011;42618;51.226;4.910;2023-10-13T02:15:56;30.27;;;14.90;;
56736;SDS011;42618;51.226;4.910;2023-10-13T02:18:24;30.10;;;15.20;;
56736;SDS011;42618;51.226;4.910;2023-10-13T02:20:55;28.80;;;14.40;;
56736;SDS011;42618;51.226;4.910;2023-10-13T02:23:23;29.60;;;15.23;;
56736;SDS011;42618;51.226;4.910;2023-10-13T02:28:27;33.95;;;15.98;;
56736;SDS011;42618;51.226;4.910;2023-10-13T02:30:57;35.47;;;17.90;;
56736;SDS011;42618;51.226;4.910;2023-10-13T02:33:24;37.28;;;18.70;;
56736;SDS011;42618;51.226;4.910;2023-10-13T02:36:00;36.60;;;17.77;;
56736;SDS011;42618;51.226;4.910;2023-10-13T02:38:32;39.50;;;19.13;;
56736;SDS011;42618;51.226;4.910;2023-10-13T02:41:12;44.15;;;18.08;;
56736;SDS011;42618;51.226;4.910;2023-10-13T02:43:45;40.10;;;18.52;;
56736;SDS011;42618;51.226;4.910;2023-10-13T02:46:12;35.65;;;17.05;;
56736;SDS011;42618;51.226;4.910;2023-10-13T02:48:42;31.95;;;17.90;;
56736;SDS011;42618;51.226;4.910;2023-10-13T02:51:12;37.35;;;17.58;;
56736;SDS011;42618;51.226;4.910;2023-10-13T02:53:43;32.80;;;16.30;;
56736;SDS011;42618;51.226;4.910;2023-10-13T02:56:16;30.92;;;15.27;;
56736;SDS011;42618;51.226;4.910;2023-10-13T02:58:50;37.08;;;17.00;;
56736;SDS011;42618;51.226;4.910;2023-10-13T03:01:23;29.60;;;13.25;;
56736;SDS011;42618;51.226;4.910;2023-10-13T03:03:56;35.90;;;15.50;;
56736;SDS011;42618;51.226;4.910;2023-10-13T03:06:25;32.78;;;15.70;;
56736;SDS011;42618;51.226;4.910;2023-10-13T03:09:03;28.42;;;13.02;;
56736;SDS011;42618;51.226;4.910;2023-10-13T03:11:45;31.15;;;13.70;;
56736;SDS011;42618;51.226;4.910;2023-10-13T03:17:02;32.47;;;14.88;;
56736;SDS011;42618;51.226;4.910;2023-10-13T03:19:33;33.45;;;14.18;;
56736;SDS011;42618;51.226;4.910;2023-10-13T03:22:01;25.83;;;14.02;;
56736;SDS011;42618;51.226;4.910;2023-10-13T03:24:36;32.53;;;14.68;;
56736;SDS011;42618;51.226;4.910;2023-10-13T03:27:08;31.05;;;15.43;;
56736;SDS011;42618;51.226;4.910;2023-10-13T03:29:36;30.83;;;13.93;;
56736;SDS011;42618;51.226;4.910;2023-10-13T03:32:03;28.98;;;14.25;;
56736;SDS011;42618;51.226;4.910;2023-10-13T03:34:34;25.30;;;12.95;;
56736;SDS011;42618;51.226;4.910;2023-10-13T03:37:01;24.48;;;11.45;;
56736;SDS011;42618;51.226;4.910;2023-10-13T03:39:37;27.92;;;14.02;;
56736;SDS011;42618;51.226;4.910;2023-10-13T03:42:04;24.77;;;11.38;;
56736;SDS011;42618;51.226;4.910;2023-10-13T03:44:32;28.65;;;13.65;;
56736;SDS011;42618;51.226;4.910;2023-10-13T03:46:59;25.77;;;12.87;;
56736;SDS011;42618;51.226;4.910;2023-10-13T03:49:45;26.02;;;13.18;;
56736;SDS011;42618;51.226;4.910;2023-10-13T03:52:12;24.42;;;11.90;;
56736;SDS011;42618;51.226;4.910;2023-10-13T03:54:40;26.40;;;12.32;;
56736;SDS011;42618;51.226;4.910;2023-10-13T03:57:09;28.95;;;12.32;;
56736;SDS011;42618;51.226;4.910;2023-10-13T03:59:39;26.13;;;11.40;;
56736;SDS011;42618;51.226;4.910;2023-10-13T04:02:06;27.52;;;11.82;;
56736;SDS011;42618;51.226;4.910;2023-10-13T04:04:44;18.05;;;8.27;;
56736;SDS011;42618;51.226;4.910;2023-10-13T04:07:14;22.92;;;10.88;;
56736;SDS011;42618;51.226;4.910;2023-10-13T04:10:01;15.02;;;7.05;;
56736;SDS011;42618;51.226;4.910;2023-10-13T04:12:49;23.55;;;9.40;;
56736;SDS011;42618;51.226;4.910;2023-10-13T04:15:34;17.60;;;7.50;;
56736;SDS011;42618;51.226;4.910;2023-10-13T04:18:06;23.35;;;10.23;;
56736;SDS011;42618;51.226;4.910;2023-10-13T04:20:45;20.90;;;9.10;;
56736;SDS011;42618;51.226;4.910;2023-10-13T04:23:30;28.05;;;10.80;;
56736;SDS011;42618;51.226;4.910;2023-10-13T04:26:16;18.33;;;7.43;;
56736;SDS011;42618;51.226;4.910;2023-10-13T04:28:50;19.85;;;8.48;;
56736;SDS011;42618;51.226;4.910;2023-10-13T04:31:20;23.25;;;10.10;;
56736;SDS011;42618;51.226;4.910;2023-10-13T04:34:12;22.88;;;9.80;;
56736;SDS011;42618;51.226;4.910;2023-10-13T04:36:46;21.85;;;9.18;;
56736;SDS011;42618;51.226;4.910;2023-10-13T04:39:12;16.00;;;7.82;;
56736;SDS011;42618;51.226;4.910;2023-10-13T04:41:55;21.42;;;9.07;;
56736;SDS011;42618;51.226;4.910;2023-10-13T04:44:22;18.75;;;7.95;;
56736;SDS011;42618;51.226;4.910;2023-10-13T04:46:54;17.60;;;8.65;;
56736;SDS011;42618;51.226;4.910;2023-10-13T04:49:26;15.63;;;7.60;;
56736;SDS011;42618;51.226;4.910;2023-10-13T04:52:17;17.58;;;7.63;;
56736;SDS011;42618;51.226;4.910;2023-10-13T04:55:11;16.63;;;8.18;;
56736;SDS011;42618;51.226;4.910;2023-10-13T04:57:58;20.63;;;7.20;;
56736;SDS011;42618;51.226;4.910;2023-10-13T05:00:45;16.00;;;6.53;;
56736;SDS011;42618;51.226;4.910;2023-10-13T05:03:12;12.23;;;6.75;;
56736;SDS011;42618;51.226;4.910;2023-10-13T05:06:19;13.85;;;6.82;;
56736;SDS011;42618;51.226;4.910;2023-10-13T05:09:05;19.33;;;7.63;;
56736;SDS011;42618;51.226;4.910;2023-10-13T05:11:50;21.40;;;8.05;;
56736;SDS011;42618;51.226;4.910;2023-10-13T05:14:35;13.88;;;6.80;;
56736;SDS011;42618;51.226;4.910;2023-10-13T05:17:20;15.88;;;6.07;;
56736;SDS011;42618;51.226;4.910;2023-10-13T05:20:07;8.20;;;3.90;;
56736;SDS011;42618;51.226;4.910;2023-10-13T05:22:52;12.40;;;5.25;;
56736;SDS011;42618;51.226;4.910;2023-10-13T05:25:38;12.82;;;4.63;;
56736;SDS011;42618;51.226;4.910;2023-10-13T05:28:23;7.07;;;3.10;;
56736;SDS011;42618;51.226;4.910;2023-10-13T05:31:09;11.18;;;5.15;;
56736;SDS011;42618;51.226;4.910;2023-10-13T05:33:54;9.30;;;4.53;;
56736;SDS011;42618;51.226;4.910;2023-10-13T05:36:40;14.15;;;5.70;;
56736;SDS011;42618;51.226;4.910;2023-10-13T05:39:25;16.58;;;5.88;;
56736;SDS011;42618;51.226;4.910;2023-10-13T05:42:10;18.92;;;5.75;;
56736;SDS011;42618;51.226;4.910;2023-10-13T05:44:56;17.70;;;7.35;;
56736;SDS011;42618;51.226;4.910;2023-10-13T05:47:43;11.85;;;4.63;;
56736;SDS011;42618;51.226;4.910;2023-10-13T05:50:10;11.63;;;5.93;;
56736;SDS011;42618;51.226;4.910;2023-10-13T05:52:48;16.40;;;6.38;;
56736;SDS011;42618;51.226;4.910;2023-10-13T05:55:26;13.23;;;5.00;;
56736;SDS011;42618;51.226;4.910;2023-10-13T05:58:12;15.60;;;6.03;;
56736;SDS011;42618;51.226;4.910;2023-10-13T06:00:58;13.38;;;5.68;;
56736;SDS011;42618;51.226;4.910;2023-10-13T06:03:44;9.43;;;3.95;;
56736;SDS011;42618;51.226;4.910;2023-10-13T06:06:29;14.38;;;5.93;;
56736;SDS011;42618;51.226;4.910;2023-10-13T06:09:15;12.07;;;5.63;;
56736;SDS011;42618;51.226;4.910;2023-10-13T06:12:00;17.15;;;6.13;;
56736;SDS011;42618;51.226;4.910;2023-10-13T06:14:46;15.10;;;5.70;;
56736;SDS011;42618;51.226;4.910;2023-10-13T06:17:31;18.23;;;6.78;;
56736;SDS011;42618;51.226;4.910;2023-10-13T06:20:16;14.98;;;5.80;;
56736;SDS011;42618;51.226;4.910;2023-10-13T06:23:02;22.60;;;6.38;;
56736;SDS011;42618;51.226;4.910;2023-10-13T06:25:50;14.88;;;5.72;;
56736;SDS011;42618;51.226;4.910;2023-10-13T06:28:39;16.80;;;6.32;;
56736;SDS011;42618;51.226;4.910;2023-10-13T06:31:09;10.50;;;3.55;;
56736;SDS011;42618;51.226;4.910;2023-10-13T06:33:49;11.95;;;4.68;;
56736;SDS011;42618;51.226;4.910;2023-10-13T06:36:16;17.50;;;5.32;;
56736;SDS011;42618;51.226;4.910;2023-10-13T06:41:11;16.23;;;5.05;;
56736;SDS011;42618;51.226;4.910;2023-10-13T06:43:46;11.65;;;4.43;;
56736;SDS011;42618;51.226;4.910;2023-10-13T06:46:26;21.67;;;5.68;;
56736;SDS011;42618;51.226;4.910;2023-10-13T06:48:55;17.30;;;5.07;;
56736;SDS011;42618;51.226;4.910;2023-10-13T06:51:26;16.05;;;5.50;;
56736;SDS011;42618;51.226;4.910;2023-10-13T06:53:58;14.60;;;5.40;;
56736;SDS011;42618;51.226;4.910;2023-10-13T06:56:24;25.63;;;6.03;;
56736;SDS011;42618;51.226;4.910;2023-10-13T06:58:55;15.27;;;4.15;;
56736;SDS011;42618;51.226;4.910;2023-10-13T07:01:26;18.48;;;5.22;;
56736;SDS011;42618;51.226;4.910;2023-10-13T07:06:22;17.00;;;5.13;;
56736;SDS011;42618;51.226;4.910;2023-10-13T07:08:49;13.13;;;3.57;;
56736;SDS011;42618;51.226;4.910;2023-10-13T07:11:19;7.32;;;3.03;;
56736;SDS011;42618;51.226;4.910;2023-10-13T07:14:00;23.17;;;4.80;;
56736;SDS011;42618;51.226;4.910;2023-10-13T07:16:42;14.43;;;3.78;;
56736;SDS011;42618;51.226;4.910;2023-10-13T07:19:13;16.55;;;4.07;;
56736;SDS011;42618;51.226;4.910;2023-10-13T07:21:46;11.25;;;3.15;;
56736;SDS011;42618;51.226;4.910;2023-10-13T07:24:13;15.40;;;4.15;;
56736;SDS011;42618;51.226;4.910;2023-10-13T07:26:40;15.45;;;4.72;;
56736;SDS011;42618;51.226;4.910;2023-10-13T07:29:12;14.05;;;3.95;;
56736;SDS011;42618;51.226;4.910;2023-10-13T07:31:40;12.27;;;3.95;;
56736;SDS011;42618;51.226;4.910;2023-10-13T07:34:12;14.40;;;4.40;;
56736;SDS011;42618;51.226;4.910;2023-10-13T07:36:47;8.15;;;3.38;;
56736;SDS011;42618;51.226;4.910;2023-10-13T07:39:16;19.58;;;4.70;;
56736;SDS011;42618;51.226;4.910;2023-10-13T07:41:51;12.95;;;3.17;;
56736;SDS011;42618;51.226;4.910;2023-10-13T07:44:30;10.65;;;3.55;;
56736;SDS011;42618;51.226;4.910;2023-10-13T07:47:01;12.85;;;3.72;;
56736;SDS011;42618;51.226;4.910;2023-10-13T07:49:38;11.73;;;4.10;;
56736;SDS011;42618;51.226;4.910;2023-10-13T07:52:10;16.17;;;3.55;;
56736;SDS011;42618;51.226;4.910;2023-10-13T07:54:48;16.95;;;3.97;;
56736;SDS011;42618;51.226;4.910;2023-10-13T07:57:22;11.15;;;3.97;;
56736;SDS011;42618;51.226;4.910;2023-10-13T07:59:56;10.48;;;4.10;;
56736;SDS011;42618;51.226;4.910;2023-10-13T08:02:58;11.40;;;2.88;;
56736;SDS011;42618;51.226;4.910;2023-10-13T08:05:45;19.15;;;3.53;;
56736;SDS011;42618;51.226;4.910;2023-10-13T08:08:47;12.50;;;2.78;;
56736;SDS011;42618;51.226;4.910;2023-10-13T08:11:19;17.02;;;3.30;;
56736;SDS011;42618;51.226;4.910;2023-10-13T08:14:06;12.68;;;3.47;;
56736;SDS011;42618;51.226;4.910;2023-10-13T08:17:02;13.65;;;4.15;;
56736;SDS011;42618;51.226;4.910;2023-10-13T08:19:33;10.82;;;3.10;;
56736;SDS011;42618;51.226;4.910;2023-10-13T08:22:08;11.65;;;3.42;;
56736;SDS011;42618;51.226;4.910;2023-10-13T08:24:46;14.00;;;4.35;;
56736;SDS011;42618;51.226;4.910;2023-10-13T08:29:45;15.68;;;3.90;;
56736;SDS011;42618;51.226;4.910;2023-10-13T08:32:35;12.82;;;4.05;;
56736;SDS011;42618;51.226;4.910;2023-10-13T08:35:03;13.30;;;3.53;;
56736;SDS011;42618;51.226;4.910;2023-10-13T08:37:30;8.55;;;3.70;;
56736;SDS011;42618;51.226;4.910;2023-10-13T08:40:13;20.48;;;4.10;;
56736;SDS011;42618;51.226;4.910;2023-10-13T08:43:06;12.18;;;3.45;;
56736;SDS011;42618;51.226;4.910;2023-10-13T08:45:41;10.45;;;3.83;;
56736;SDS011;42618;51.226;4.910;2023-10-13T08:48:10;15.30;;;3.95;;
56736;SDS011;42618;51.226;4.910;2023-10-13T08:56:09;14.32;;;3.88;;
56736;SDS011;42618;51.226;4.910;2023-10-13T08:58:45;13.55;;;3.47;;
56736;SDS011;42618;51.226;4.910;2023-10-13T09:01:29;17.88;;;3.75;;
56736;SDS011;42618;51.226;4.910;2023-10-13T09:04:16;19.42;;;4.35;;
56736;SDS011;42618;51.226;4.910;2023-10-13T09:06:45;11.48;;;4.22;;
56736;SDS011;42618;51.226;4.910;2023-10-13T09:09:31;16.50;;;4.10;;
56736;SDS011;42618;51.226;4.910;2023-10-13T09:12:21;17.85;;;4.68;;
56736;SDS011;42618;51.226;4.910;2023-10-13T09:14:59;16.35;;;3.42;;
56736;SDS011;42618;51.226;4.910;2023-10-13T09:17:43;9.05;;;2.85;;
56736;SDS011;42618;51.226;4.910;2023-10-13T09:22:56;14.30;;;3.53;;
56736;SDS011;42618;51.226;4.910;2023-10-13T09:25:29;15.32;;;4.20;;
56736;SDS011;42618;51.226;4.910;2023-10-13T09:28:02;18.02;;;3.65;;
56736;SDS011;42618;51.226;4.910;2023-10-13T09:30:50;10.05;;;2.75;;
56736;SDS011;42618;51.226;4.910;2023-10-13T09:33:20;13.88;;;3.42;;
56736;SDS011;42618;51.226;4.910;2023-10-13T09:35:55;10.10;;;3.17;;
56736;SDS011;42618;51.226;4.910;2023-10-13T09:38:29;11.00;;;3.47;;
56736;SDS011;42618;51.226;4.910;2023-10-13T09:40:58;11.95;;;3.17;;
56736;SDS011;42618;51.226;4.910;2023-10-13T09:43:44;17.15;;;4.10;;
56736;SDS011;42618;51.226;4.910;2023-10-13T09:46:18;8.48;;;2.70;;
56736;SDS011;42618;51.226;4.910;2023-10-13T09:48:50;10.35;;;2.92;;
56736;SDS011;42618;51.226;4.910;2023-10-13T09:51:35;7.88;;;3.28;;
56736;SDS011;42618;51.226;4.910;2023-10-13T09:57:02;17.13;;;4.82;;
56736;SDS011;42618;51.226;4.910;2023-10-13T09:59:46;17.42;;;5.05;;
56736;SDS011;42618;51.226;4.910;2023-10-13T10:02:19;6.82;;;2.70;;
56736;SDS011;42618;51.226;4.910;2023-10-13T10:04:53;13.35;;;3.58;;
56736;SDS011;42618;51.226;4.910;2023-10-13T10:07:28;11.82;;;3.75;;
56736;SDS011;42618;51.226;4.910;2023-10-13T10:09:56;10.80;;;4.28;;
56736;SDS011;42618;51.226;4.910;2023-10-13T10:17:43;9.38;;;3.35;;
56736;SDS011;42618;51.226;4.910;2023-10-13T10:20:10;18.60;;;3.58;;
56736;SDS011;42618;51.226;4.910;2023-10-13T10:22:59;16.08;;;3.92;;
56736;SDS011;42618;51.226;4.910;2023-10-13T10:28:02;15.45;;;4.55;;
56736;SDS011;42618;51.226;4.910;2023-10-13T10:30:33;12.98;;;3.30;;
56736;SDS011;42618;51.226;4.910;2023-10-13T10:33:05;12.65;;;4.20;;
56736;SDS011;42618;51.226;4.910;2023-10-13T10:35:40;16.60;;;3.58;;
56736;SDS011;42618;51.226;4.910;2023-10-13T10:38:12;15.15;;;3.50;;
56736;SDS011;42618;51.226;4.910;2023-10-13T10:41:04;16.25;;;4.15;;
56736;SDS011;42618;51.226;4.910;2023-10-13T10:46:12;17.00;;;3.33;;
56736;SDS011;42618;51.226;4.910;2023-10-13T10:48:45;18.10;;;3.63;;
56736;SDS011;42618;51.226;4.910;2023-10-13T10:51:12;15.43;;;3.63;;
56736;SDS011;42618;51.226;4.910;2023-10-13T10:53:53;13.85;;;3.72;;
56736;SDS011;42618;51.226;4.910;2023-10-13T10:56:23;9.43;;;3.10;;
56736;SDS011;42618;51.226;4.910;2023-10-13T10:59:04;14.52;;;3.67;;
56736;SDS011;42618;51.226;4.910;2023-10-13T11:01:42;6.88;;;2.47;;
56736;SDS011;42618;51.226;4.910;2023-10-13T11:04:14;19.15;;;4.22;;
56736;SDS011;42618;51.226;4.910;2023-10-13T11:06:46;16.20;;;5.13;;
56736;SDS011;42618;51.226;4.910;2023-10-13T11:09:14;13.85;;;2.85;;
56736;SDS011;42618;51.226;4.910;2023-10-13T11:11:54;10.55;;;3.72;;
56736;SDS011;42618;51.226;4.910;2023-10-13T11:14:25;8.13;;;2.88;;
56736;SDS011;42618;51.226;4.910;2023-10-13T11:16:56;9.05;;;3.63;;
56736;SDS011;42618;51.226;4.910;2023-10-13T11:19:37;11.07;;;2.50;;
56736;SDS011;42618;51.226;4.910;2023-10-13T11:22:14;15.05;;;3.50;;
56736;SDS011;42618;51.226;4.910;2023-10-13T11:25:08;11.23;;;3.42;;
56736;SDS011;42618;51.226;4.910;2023-10-13T11:27:39;10.48;;;3.55;;
56736;SDS011;42618;51.226;4.910;2023-10-13T11:30:19;18.42;;;3.72;;
56736;SDS011;42618;51.226;4.910;2023-10-13T11:32:59;11.70;;;3.50;;
56736;SDS011;42618;51.226;4.910;2023-10-13T11:35:27;11.30;;;3.42;;
56736;SDS011;42618;51.226;4.910;2023-10-13T11:38:16;12.85;;;3.30;;
56736;SDS011;42618;51.226;4.910;2023-10-13T11:43:35;14.30;;;4.07;;
56736;SDS011;42618;51.226;4.910;2023-10-13T11:46:10;17.10;;;4.25;;
56736;SDS011;42618;51.226;4.910;2023-10-13T11:48:42;14.80;;;3.97;;
56736;SDS011;42618;51.226;4.910;2023-10-13T11:51:10;25.15;;;4.07;;
56736;SDS011;42618;51.226;4.910;2023-10-13T11:53:50;20.80;;;4.60;;
56736;SDS011;42618;51.226;4.910;2023-10-13T11:56:20;20.08;;;4.18;;
56736;SDS011;42618;51.226;4.910;2023-10-13T11:58:47;17.27;;;3.97;;
56736;SDS011;42618;51.226;4.910;2023-10-13T12:01:14;22.30;;;4.40;;
56736;SDS011;42618;51.226;4.910;2023-10-13T12:03:42;10.77;;;3.45;;
56736;SDS011;42618;51.226;4.910;2023-10-13T12:06:29;14.13;;;3.47;;
56736;SDS011;42618;51.226;4.910;2023-10-13T12:12:05;15.50;;;4.07;;
56736;SDS011;42618;51.226;4.910;2023-10-13T12:14:32;21.17;;;3.67;;
56736;SDS011;42618;51.226;4.910;2023-10-13T12:17:04;20.63;;;4.72;;
56736;SDS011;42618;51.226;4.910;2023-10-13T12:19:37;13.90;;;3.63;;
56736;SDS011;42618;51.226;4.910;2023-10-13T12:22:05;18.70;;;4.80;;
56736;SDS011;42618;51.226;4.910;2023-10-13T12:24:35;19.33;;;3.47;;
56736;SDS011;42618;51.226;4.910;2023-10-13T12:27:08;10.15;;;3.65;;
56736;SDS011;42618;51.226;4.910;2023-10-13T12:29:50;18.98;;;4.03;;
56736;SDS011;42618;51.226;4.910;2023-10-13T12:32:18;15.43;;;3.97;;
56736;SDS011;42618;51.226;4.910;2023-10-13T12:34:51;23.88;;;4.90;;
56736;SDS011;42618;51.226;4.910;2023-10-13T12:37:27;12.10;;;3.85;;
56736;SDS011;42618;51.226;4.910;2023-10-13T12:40:13;17.70;;;3.67;;
56736;SDS011;42618;51.226;4.910;2023-10-13T12:43:04;10.43;;;2.50;;
56736;SDS011;42618;51.226;4.910;2023-10-13T12:45:50;11.90;;;3.30;;
56736;SDS011;42618;51.226;4.910;2023-10-13T12:48:37;6.70;;;2.65;;
56736;SDS011;42618;51.226;4.910;2023-10-13T12:51:24;11.85;;;3.33;;
56736;SDS011;42618;51.226;4.910;2023-10-13T12:53:57;16.13;;;3.38;;
56736;SDS011;42618;51.226;4.910;2023-10-13T12:56:31;8.43;;;2.85;;
56736;SDS011;42618;51.226;4.910;2023-10-13T13:01:25;7.78;;;2.17;;
56736;SDS011;42618;51.226;4.910;2023-10-13T13:03:59;13.27;;;3.10;;
56736;SDS011;42618;51.226;4.910;2023-10-13T13:06:30;16.35;;;3.85;;
56736;SDS011;42618;51.226;4.910;2023-10-13T13:08:57;14.82;;;3.22;;
56736;SDS011;42618;51.226;4.910;2023-10-13T13:11:26;15.02;;;3.45;;
56736;SDS011;42618;51.226;4.910;2023-10-13T13:13:56;11.23;;;2.95;;
56736;SDS011;42618;51.226;4.910;2023-10-13T13:16:23;9.50;;;3.23;;
56736;SDS011;42618;51.226;4.910;2023-10-13T13:18:57;13.63;;;3.50;;
56736;SDS011;42618;51.226;4.910;2023-10-13T13:21:24;13.48;;;2.80;;
56736;SDS011;42618;51.226;4.910;2023-10-13T13:23:50;11.70;;;3.57;;
56736;SDS011;42618;51.226;4.910;2023-10-13T13:26:24;9.88;;;3.20;;
56736;SDS011;42618;51.226;4.910;2023-10-13T13:28:50;16.88;;;3.85;;
56736;SDS011;42618;51.226;4.910;2023-10-13T13:31:21;14.23;;;3.53;;
56736;SDS011;42618;51.226;4.910;2023-10-13T13:33:52;8.95;;;3.30;;
56736;SDS011;42618;51.226;4.910;2023-10-13T13:36:19;19.53;;;3.73;;
56736;SDS011;42618;51.226;4.910;2023-10-13T13:38:46;10.30;;;3.30;;
56736;SDS011;42618;51.226;4.910;2023-10-13T13:41:15;10.25;;;2.97;;
56736;SDS011;42618;51.226;4.910;2023-10-13T13:43:44;8.77;;;2.83;;
56736;SDS011;42618;51.226;4.910;2023-10-13T13:46:22;11.75;;;3.58;;
56736;SDS011;42618;51.226;4.910;2023-10-13T13:48:59;14.52;;;3.35;;
56736;SDS011;42618;51.226;4.910;2023-10-13T13:51:33;9.23;;;2.20;;
56736;SDS011;42618;51.226;4.910;2023-10-13T13:54:00;11.93;;;3.55;;
56736;SDS011;42618;51.226;4.910;2023-10-13T13:56:30;7.32;;;2.38;;
56736;SDS011;42618;51.226;4.910;2023-10-13T13:59:04;13.90;;;2.90;;
56736;SDS011;42618;51.226;4.910;2023-10-13T14:01:35;17.30;;;4.00;;
56736;SDS011;42618;51.226;4.910;2023-10-13T14:04:04;13.73;;;3.70;;
56736;SDS011;42618;51.226;4.910;2023-10-13T14:06:33;10.23;;;3.22;;
56736;SDS011;42618;51.226;4.910;2023-10-13T14:09:01;14.73;;;3.33;;
56736;SDS011;42618;51.226;4.910;2023-10-13T14:11:40;18.48;;;3.25;;
56736;SDS011;42618;51.226;4.910;2023-10-13T14:14:08;11.80;;;3.33;;
56736;SDS011;42618;51.226;4.910;2023-10-13T14:16:39;14.15;;;2.80;;
56736;SDS011;42618;51.226;4.910;2023-10-13T14:19:11;11.18;;;3.30;;
56736;SDS011;42618;51.226;4.910;2023-10-13T14:21:38;14.82;;;3.25;;
56736;SDS011;42618;51.226;4.910;2023-10-13T14:24:05;10.52;;;3.28;;
56736;SDS011;42618;51.226;4.910;2023-10-13T14:26:43;10.13;;;2.63;;
56736;SDS011;42618;51.226;4.910;2023-10-13T14:29:10;13.82;;;2.90;;
56736;SDS011;42618;51.226;4.910;2023-10-13T14:31:40;7.80;;;2.97;;
56736;SDS011;42618;51.226;4.910;2023-10-13T14:34:08;6.35;;;2.60;;
56736;SDS011;42618;51.226;4.910;2023-10-13T14:36:34;19.80;;;3.30;;
56736;SDS011;42618;51.226;4.910;2023-10-13T14:39:02;11.65;;;3.08;;
56736;SDS011;42618;51.226;4.910;2023-10-13T14:41:36;12.85;;;2.88;;
56736;SDS011;42618;51.226;4.910;2023-10-13T14:44:04;12.07;;;3.15;;
56736;SDS011;42618;51.226;4.910;2023-10-13T14:46:34;14.75;;;3.33;;
56736;SDS011;42618;51.226;4.910;2023-10-13T14:51:29;21.02;;;4.45;;
56736;SDS011;42618;51.226;4.910;2023-10-13T14:53:56;9.57;;;3.40;;
56736;SDS011;42618;51.226;4.910;2023-10-13T14:56:23;9.23;;;3.07;;
56736;SDS011;42618;51.226;4.910;2023-10-13T14:58:52;12.85;;;3.63;;
56736;SDS011;42618;51.226;4.910;2023-10-13T15:01:21;13.40;;;3.45;;
56736;SDS011;42618;51.226;4.910;2023-10-13T15:03:49;6.75;;;2.80;;
56736;SDS011;42618;51.226;4.910;2023-10-13T15:06:22;13.23;;;2.67;;
56736;SDS011;42618;51.226;4.910;2023-10-13T15:08:59;9.13;;;3.22;;
56736;SDS011;42618;51.226;4.910;2023-10-13T15:11:27;14.55;;;2.60;;
56736;SDS011;42618;51.226;4.910;2023-10-13T15:14:12;6.10;;;2.50;;
56736;SDS011;42618;51.226;4.910;2023-10-13T15:16:39;16.08;;;3.42;;
56736;SDS011;42618;51.226;4.910;2023-10-13T15:19:07;11.43;;;3.13;;
56736;SDS011;42618;51.226;4.910;2023-10-13T15:21:36;16.23;;;3.25;;
56736;SDS011;42618;51.226;4.910;2023-10-13T15:24:03;13.63;;;3.22;;
56736;SDS011;42618;51.226;4.910;2023-10-13T15:26:51;8.23;;;2.60;;
56736;SDS011;42618;51.226;4.910;2023-10-13T15:29:23;20.42;;;3.25;;
56736;SDS011;42618;51.226;4.910;2023-10-13T15:31:56;16.23;;;4.20;;
56736;SDS011;42618;51.226;4.910;2023-10-13T15:34:26;14.88;;;2.95;;
56736;SDS011;42618;51.226;4.910;2023-10-13T15:36:55;16.27;;;3.63;;
56736;SDS011;42618;51.226;4.910;2023-10-13T15:39:23;11.52;;;2.97;;
56736;SDS011;42618;51.226;4.910;2023-10-13T15:41:51;6.97;;;3.25;;
56736;SDS011;42618;51.226;4.910;2023-10-13T15:44:19;9.82;;;3.40;;
56736;SDS011;42618;51.226;4.910;2023-10-13T15:46:48;13.68;;;3.50;;
56736;SDS011;42618;51.226;4.910;2023-10-13T15:49:21;9.65;;;3.88;;
56736;SDS011;42618;51.226;4.910;2023-10-13T15:51:49;15.20;;;3.17;;
56736;SDS011;42618;51.226;4.910;2023-10-13T15:54:19;9.48;;;3.13;;
56736;SDS011;42618;51.226;4.910;2023-10-13T15:56:47;14.13;;;3.33;;
56736;SDS011;42618;51.226;4.910;2023-10-13T15:59:15;11.77;;;2.88;;
56736;SDS011;42618;51.226;4.910;2023-10-13T16:01:42;8.38;;;3.00;;
56736;SDS011;42618;51.226;4.910;2023-10-13T16:04:13;14.52;;;3.83;;